sensor_id;sensor_type;location;lat;lon;timestamp;temperature;humidity
2767;DHT22;1391;46.74287300;11.63683300;2023-08-20T00:01:33;16.30;99.90
2767;DHT22;1391;46.74287300;11.63683300;2023-08-20T00:04:01;16.10;99.90
2767;DHT22;1391;46.74287300;11.63683300;2023-08-20T00:06:29;16.30;99.90
2767;DHT22;1391;46.74287300;11.63683300;2023-08-20T00:08:57;16.10;99.90
2767;DHT22;1391;46.74287300;11.63683300;2023-08-20T00:11:25;16.30;99.90
2767;DHT22;1391;46.74287300;11.63683300;2023-08-20T00:13:52;16.20;99.90
2767;DHT22;1391;46.74287300;11.63683300;2023-08-20T00:16:22;16.30;99.90
2767;DHT22;1391;46.74287300;11.63683300;2023-08-20T00:18:49;16.10;99.90
2767;DHT22;1391;46.74287300;11.63683300;2023-08-20T00:21:17;16.20;99.90
2767;DHT22;1391;46.74287300;11.63683300;2023-08-20T00:23:45;16.30;99.90
2767;DHT22;1391;46.74287300;11.63683300;2023-08-20T00:26:13;16.30;99.90
2767;DHT22;1391;46.74287300;11.63683300;2023-08-20T00:28:41;16.20;99.90
2767;DHT22;1391;46.74287300;11.63683300;2023-08-20T00:31:08;15.80;99.90
2767;DHT22;1391;46.74287300;11.63683300;2023-08-20T00:33:36;15.40;99.90
2767;DHT22;1391;46.74287300;11.63683300;2023-08-20T00:36:04;16.30;99.90
2767;DHT22;1391;46.74287300;11.63683300;2023-08-20T00:38:31;15.80;99.90
2767;DHT22;1391;46.74287300;11.63683300;2023-08-20T00:40:58;15.80;99.90
2767;DHT22;1391;46.74287300;11.63683300;2023-08-20T00:43:25;15.90;99.90
2767;DHT22;1391;46.74287300;11.63683300;2023-08-20T00:45:52;15.60;99.90
2767;DHT22;1391;46.74287300;11.63683300;2023-08-20T00:48:19;16.20;99.90
2767;DHT22;1391;46.74287300;11.63683300;2023-08-20T00:50:48;15.90;99.90
2767;DHT22;1391;46.74287300;11.63683300;2023-08-20T00:53:15;15.60;99.90
2767;DHT22;1391;46.74287300;11.63683300;2023-08-20T00:55:43;15.40;99.90
2767;DHT22;1391;46.74287300;11.63683300;2023-08-20T00:58:11;15.50;99.90
2767;DHT22;1391;46.74287300;11.63683300;2023-08-20T01:00:38;15.60;99.90
2767;DHT22;1391;46.74287300;11.63683300;2023-08-20T01:03:05;15.90;99.90
2767;DHT22;1391;46.74287300;11.63683300;2023-08-20T01:05:39;15.70;99.90
2767;DHT22;1391;46.74287300;11.63683300;2023-08-20T01:08:27;15.70;99.90
2767;DHT22;1391;46.74287300;11.63683300;2023-08-20T01:10:59;15.70;99.90
2767;DHT22;1391;46.74287300;11.63683300;2023-08-20T01:13:28;15.60;99.90
2767;DHT22;1391;46.74287300;11.63683300;2023-08-20T01:15:55;15.40;99.90
2767;DHT22;1391;46.74287300;11.63683300;2023-08-20T01:18:23;15.40;99.90
2767;DHT22;1391;46.74287300;11.63683300;2023-08-20T01:20:56;15.40;99.90
2767;DHT22;1391;46.74287300;11.63683300;2023-08-20T01:23:57;15.60;99.90
2767;DHT22;1391;46.74287300;11.63683300;2023-08-20T01:26:47;15.80;99.90
2767;DHT22;1391;46.74287300;11.63683300;2023-08-20T01:29:18;15.80;99.90
2767;DHT22;1391;46.74287300;11.63683300;2023-08-20T01:31:47;15.40;99.90
2767;DHT22;1391;46.74287300;11.63683300;2023-08-20T01:34:14;15.40;99.90
2767;DHT22;1391;46.74287300;11.63683300;2023-08-20T01:36:41;15.50;99.90
2767;DHT22;1391;46.74287300;11.63683300;2023-08-20T01:39:08;15.40;99.90
2767;DHT22;1391;46.74287300;11.63683300;2023-08-20T01:41:35;15.50;99.90
2767;DHT22;1391;46.74287300;11.63683300;2023-08-20T01:44:03;15.30;99.90
2767;DHT22;1391;46.74287300;11.63683300;2023-08-20T01:46:32;15.30;99.90
2767;DHT22;1391;46.74287300;11.63683300;2023-08-20T01:48:59;15.00;99.90
2767;DHT22;1391;46.74287300;11.63683300;2023-08-20T01:51:26;15.20;99.90
2767;DHT22;1391;46.74287300;11.63683300;2023-08-20T01:53:53;15.30;99.90
2767;DHT22;1391;46.74287300;11.63683300;2023-08-20T01:56:20;15.00;99.90
2767;DHT22;1391;46.74287300;11.63683300;2023-08-20T01:58:48;15.30;99.90
2767;DHT22;1391;46.74287300;11.63683300;2023-08-20T02:01:15;15.20;99.90
2767;DHT22;1391;46.74287300;11.63683300;2023-08-20T02:03:43;15.60;99.90
2767;DHT22;1391;46.74287300;11.63683300;2023-08-20T02:06:10;14.90;99.90
2767;DHT22;1391;46.74287300;11.63683300;2023-08-20T02:08:37;15.10;99.90
2767;DHT22;1391;46.74287300;11.63683300;2023-08-20T02:11:05;14.90;99.90
2767;DHT22;1391;46.74287300;11.63683300;2023-08-20T02:13:32;15.10;99.90
2767;DHT22;1391;46.74287300;11.63683300;2023-08-20T02:16:00;15.00;99.90
2767;DHT22;1391;46.74287300;11.63683300;2023-08-20T02:18:28;15.20;99.90
2767;DHT22;1391;46.74287300;11.63683300;2023-08-20T02:20:56;15.30;99.90
2767;DHT22;1391;46.74287300;11.63683300;2023-08-20T02:23:23;15.00;99.90
2767;DHT22;1391;46.74287300;11.63683300;2023-08-20T02:25:51;15.30;99.90
2767;DHT22;1391;46.74287300;11.63683300;2023-08-20T02:28:18;14.90;99.90
2767;DHT22;1391;46.74287300;11.63683300;2023-08-20T02:30:46;15.20;99.90
2767;DHT22;1391;46.74287300;11.63683300;2023-08-20T02:33:13;15.20;99.90
2767;DHT22;1391;46.74287300;11.63683300;2023-08-20T02:35:40;15.20;99.90
2767;DHT22;1391;46.74287300;11.63683300;2023-08-20T02:38:09;15.20;99.90
2767;DHT22;1391;46.74287300;11.63683300;2023-08-20T02:40:40;15.20;99.90
2767;DHT22;1391;46.74287300;11.63683300;2023-08-20T02:43:08;15.20;99.90
2767;DHT22;1391;46.74287300;11.63683300;2023-08-20T02:45:40;15.20;99.90
2767;DHT22;1391;46.74287300;11.63683300;2023-08-20T02:48:08;15.20;99.90
2767;DHT22;1391;46.74287300;11.63683300;2023-08-20T02:50:36;15.20;99.90
2767;DHT22;1391;46.74287300;11.63683300;2023-08-20T02:53:03;15.20;99.90
2767;DHT22;1391;46.74287300;11.63683300;2023-08-20T02:55:32;15.30;99.90
2767;DHT22;1391;46.74287300;11.63683300;2023-08-20T02:58:01;15.00;99.90
2767;DHT22;1391;46.74287300;11.63683300;2023-08-20T03:00:29;15.30;99.90
2767;DHT22;1391;46.74287300;11.63683300;2023-08-20T03:02:56;15.00;99.90
2767;DHT22;1391;46.74287300;11.63683300;2023-08-20T03:05:23;14.90;99.90
2767;DHT22;1391;46.74287300;11.63683300;2023-08-20T03:07:50;15.20;99.90
2767;DHT22;1391;46.74287300;11.63683300;2023-08-20T03:10:18;15.20;99.90
2767;DHT22;1391;46.74287300;11.63683300;2023-08-20T03:12:46;14.80;99.90
2767;DHT22;1391;46.74287300;11.63683300;2023-08-20T03:15:13;14.90;99.90
2767;DHT22;1391;46.74287300;11.63683300;2023-08-20T03:17:40;15.10;99.90
2767;DHT22;1391;46.74287300;11.63683300;2023-08-20T03:20:09;15.00;99.90
2767;DHT22;1391;46.74287300;11.63683300;2023-08-20T03:22:37;14.80;99.90
2767;DHT22;1391;46.74287300;11.63683300;2023-08-20T03:25:05;14.80;99.90
2767;DHT22;1391;46.74287300;11.63683300;2023-08-20T03:27:33;14.80;99.90
2767;DHT22;1391;46.74287300;11.63683300;2023-08-20T03:30:03;14.80;99.90
2767;DHT22;1391;46.74287300;11.63683300;2023-08-20T03:32:31;14.80;99.90
2767;DHT22;1391;46.74287300;11.63683300;2023-08-20T03:34:58;14.40;99.90
2767;DHT22;1391;46.74287300;11.63683300;2023-08-20T03:37:25;14.60;99.90
2767;DHT22;1391;46.74287300;11.63683300;2023-08-20T03:39:52;14.60;99.90
2767;DHT22;1391;46.74287300;11.63683300;2023-08-20T03:42:20;14.50;99.90
2767;DHT22;1391;46.74287300;11.63683300;2023-08-20T03:44:47;14.40;99.90
2767;DHT22;1391;46.74287300;11.63683300;2023-08-20T03:47:15;14.50;99.90
2767;DHT22;1391;46.74287300;11.63683300;2023-08-20T03:49:46;14.40;99.90
2767;DHT22;1391;46.74287300;11.63683300;2023-08-20T03:52:13;14.50;99.90
2767;DHT22;1391;46.74287300;11.63683300;2023-08-20T03:54:40;14.40;99.90
2767;DHT22;1391;46.74287300;11.63683300;2023-08-20T03:57:08;14.50;99.90
2767;DHT22;1391;46.74287300;11.63683300;2023-08-20T03:59:35;14.40;99.90
2767;DHT22;1391;46.74287300;11.63683300;2023-08-20T04:02:03;14.70;99.90
2767;DHT22;1391;46.74287300;11.63683300;2023-08-20T04:04:32;14.40;99.90
2767;DHT22;1391;46.74287300;11.63683300;2023-08-20T04:06:59;14.60;99.90
2767;DHT22;1391;46.74287300;11.63683300;2023-08-20T04:09:26;14.50;99.90
2767;DHT22;1391;46.74287300;11.63683300;2023-08-20T04:11:54;14.80;99.90
2767;DHT22;1391;46.74287300;11.63683300;2023-08-20T04:14:21;14.90;99.90
2767;DHT22;1391;46.74287300;11.63683300;2023-08-20T04:16:48;14.80;99.90
2767;DHT22;1391;46.74287300;11.63683300;2023-08-20T04:19:15;14.50;99.90
2767;DHT22;1391;46.74287300;11.63683300;2023-08-20T04:21:44;14.40;99.90
2767;DHT22;1391;46.74287300;11.63683300;2023-08-20T04:24:11;14.60;99.90
2767;DHT22;1391;46.74287300;11.63683300;2023-08-20T04:26:38;14.40;99.90
2767;DHT22;1391;46.74287300;11.63683300;2023-08-20T04:29:05;14.70;99.90
2767;DHT22;1391;46.74287300;11.63683300;2023-08-20T04:31:32;14.40;99.90
2767;DHT22;1391;46.74287300;11.63683300;2023-08-20T04:34:00;14.50;99.90
2767;DHT22;1391;46.74287300;11.63683300;2023-08-20T04:36:27;14.40;99.90
2767;DHT22;1391;46.74287300;11.63683300;2023-08-20T04:38:56;14.60;99.90
2767;DHT22;1391;46.74287300;11.63683300;2023-08-20T04:41:23;14.40;99.90
2767;DHT22;1391;46.74287300;11.63683300;2023-08-20T04:43:51;15.00;99.90
2767;DHT22;1391;46.74287300;11.63683300;2023-08-20T04:46:18;14.80;99.90
2767;DHT22;1391;46.74287300;11.63683300;2023-08-20T04:48:46;14.50;99.90
2767;DHT22;1391;46.74287300;11.63683300;2023-08-20T04:51:13;14.80;99.90
2767;DHT22;1391;46.74287300;11.63683300;2023-08-20T04:53:41;14.90;99.90
2767;DHT22;1391;46.74287300;11.63683300;2023-08-20T04:56:10;14.80;99.90
2767;DHT22;1391;46.74287300;11.63683300;2023-08-20T04:58:37;14.80;99.90
2767;DHT22;1391;46.74287300;11.63683300;2023-08-20T05:01:05;14.80;99.90
2767;DHT22;1391;46.74287300;11.63683300;2023-08-20T05:03:34;14.80;99.90
2767;DHT22;1391;46.74287300;11.63683300;2023-08-20T05:06:01;14.90;99.90
2767;DHT22;1391;46.74287300;11.63683300;2023-08-20T05:08:29;15.20;99.90
2767;DHT22;1391;46.74287300;11.63683300;2023-08-20T05:10:57;14.80;99.90
2767;DHT22;1391;46.74287300;11.63683300;2023-08-20T05:13:25;14.90;99.90
2767;DHT22;1391;46.74287300;11.63683300;2023-08-20T05:15:52;15.20;99.90
2767;DHT22;1391;46.74287300;11.63683300;2023-08-20T05:18:20;15.60;99.90
2767;DHT22;1391;46.74287300;11.63683300;2023-08-20T05:20:47;15.30;99.90
2767;DHT22;1391;46.74287300;11.63683300;2023-08-20T05:23:14;15.30;99.90
2767;DHT22;1391;46.74287300;11.63683300;2023-08-20T05:25:41;15.40;99.90
2767;DHT22;1391;46.74287300;11.63683300;2023-08-20T05:28:08;15.80;99.90
2767;DHT22;1391;46.74287300;11.63683300;2023-08-20T05:30:37;16.20;99.90
2767;DHT22;1391;46.74287300;11.63683300;2023-08-20T05:33:05;16.30;99.90
2767;DHT22;1391;46.74287300;11.63683300;2023-08-20T05:35:32;16.20;99.90
2767;DHT22;1391;46.74287300;11.63683300;2023-08-20T05:38:00;15.80;99.90
2767;DHT22;1391;46.74287300;11.63683300;2023-08-20T05:40:27;15.80;99.90
2767;DHT22;1391;46.74287300;11.63683300;2023-08-20T05:42:54;15.90;99.90
2767;DHT22;1391;46.74287300;11.63683300;2023-08-20T05:45:22;16.10;99.90
2767;DHT22;1391;46.74287300;11.63683300;2023-08-20T05:47:51;16.30;99.90
2767;DHT22;1391;46.74287300;11.63683300;2023-08-20T05:50:18;16.10;99.90
2767;DHT22;1391;46.74287300;11.63683300;2023-08-20T05:52:45;16.60;99.90
2767;DHT22;1391;46.74287300;11.63683300;2023-08-20T05:55:12;16.90;99.90
2767;DHT22;1391;46.74287300;11.63683300;2023-08-20T05:57:41;16.50;99.90
2767;DHT22;1391;46.74287300;11.63683300;2023-08-20T06:00:09;17.30;99.90
2767;DHT22;1391;46.74287300;11.63683300;2023-08-20T06:02:37;17.20;99.90
2767;DHT22;1391;46.74287300;11.63683300;2023-08-20T06:05:07;17.40;99.90
2767;DHT22;1391;46.74287300;11.63683300;2023-08-20T06:07:34;17.30;99.90
2767;DHT22;1391;46.74287300;11.63683300;2023-08-20T06:10:02;17.30;99.90
2767;DHT22;1391;46.74287300;11.63683300;2023-08-20T06:12:29;17.30;99.90
2767;DHT22;1391;46.74287300;11.63683300;2023-08-20T06:14:56;17.40;99.90
2767;DHT22;1391;46.74287300;11.63683300;2023-08-20T06:17:24;17.40;99.90
2767;DHT22;1391;46.74287300;11.63683300;2023-08-20T06:19:54;17.40;99.90
2767;DHT22;1391;46.74287300;11.63683300;2023-08-20T06:22:23;17.80;99.90
2767;DHT22;1391;46.74287300;11.63683300;2023-08-20T06:24:50;18.00;99.90
2767;DHT22;1391;46.74287300;11.63683300;2023-08-20T06:27:18;17.80;99.90
2767;DHT22;1391;46.74287300;11.63683300;2023-08-20T06:29:45;17.90;99.90
2767;DHT22;1391;46.74287300;11.63683300;2023-08-20T06:32:12;17.70;99.90
2767;DHT22;1391;46.74287300;11.63683300;2023-08-20T06:34:40;18.50;98.00
2767;DHT22;1391;46.74287300;11.63683300;2023-08-20T06:37:08;18.50;99.90
2767;DHT22;1391;46.74287300;11.63683300;2023-08-20T06:39:37;18.30;99.90
2767;DHT22;1391;46.74287300;11.63683300;2023-08-20T06:42:05;18.30;99.90
2767;DHT22;1391;46.74287300;11.63683300;2023-08-20T06:44:32;18.30;99.90
2767;DHT22;1391;46.74287300;11.63683300;2023-08-20T06:47:01;19.10;88.80
2767;DHT22;1391;46.74287300;11.63683300;2023-08-20T06:49:28;19.10;82.50
2767;DHT22;1391;46.74287300;11.63683300;2023-08-20T06:51:56;19.30;82.00
2767;DHT22;1391;46.74287300;11.63683300;2023-08-20T06:54:23;19.10;84.20
2767;DHT22;1391;46.74287300;11.63683300;2023-08-20T06:56:52;19.00;84.50
2767;DHT22;1391;46.74287300;11.63683300;2023-08-20T06:59:19;19.30;83.70
2767;DHT22;1391;46.74287300;11.63683300;2023-08-20T07:01:46;19.20;89.50
2767;DHT22;1391;46.74287300;11.63683300;2023-08-20T07:04:13;19.10;92.90
2767;DHT22;1391;46.74287300;11.63683300;2023-08-20T07:06:41;19.20;91.00
2767;DHT22;1391;46.74287300;11.63683300;2023-08-20T07:09:09;19.60;77.60
2767;DHT22;1391;46.74287300;11.63683300;2023-08-20T07:11:36;19.70;67.60
2767;DHT22;1391;46.74287300;11.63683300;2023-08-20T07:16:38;20.20;69.60
2767;DHT22;1391;46.74287300;11.63683300;2023-08-20T07:19:06;20.30;73.20
2767;DHT22;1391;46.74287300;11.63683300;2023-08-20T07:21:33;20.40;73.60
2767;DHT22;1391;46.74287300;11.63683300;2023-08-20T07:24:01;21.00;64.90
2767;DHT22;1391;46.74287300;11.63683300;2023-08-20T07:26:28;21.10;64.40
2767;DHT22;1391;46.74287300;11.63683300;2023-08-20T07:28:56;22.00;54.70
2767;DHT22;1391;46.74287300;11.63683300;2023-08-20T07:31:24;22.00;53.50
2767;DHT22;1391;46.74287300;11.63683300;2023-08-20T07:33:53;22.00;51.10
2767;DHT22;1391;46.74287300;11.63683300;2023-08-20T07:36:22;22.20;52.50
2767;DHT22;1391;46.74287300;11.63683300;2023-08-20T07:38:50;22.10;47.70
2767;DHT22;1391;46.74287300;11.63683300;2023-08-20T07:41:18;22.20;44.30
2767;DHT22;1391;46.74287300;11.63683300;2023-08-20T07:43:47;21.90;41.00
2767;DHT22;1391;46.74287300;11.63683300;2023-08-20T07:46:15;22.50;48.00
2767;DHT22;1391;46.74287300;11.63683300;2023-08-20T07:48:42;22.10;47.80
2767;DHT22;1391;46.74287300;11.63683300;2023-08-20T07:51:12;22.70;45.90
2767;DHT22;1391;46.74287300;11.63683300;2023-08-20T07:53:39;22.90;46.50
2767;DHT22;1391;46.74287300;11.63683300;2023-08-20T07:56:06;23.40;42.40
2767;DHT22;1391;46.74287300;11.63683300;2023-08-20T07:58:34;23.50;41.10
2767;DHT22;1391;46.74287300;11.63683300;2023-08-20T08:01:02;24.50;42.40
2767;DHT22;1391;46.74287300;11.63683300;2023-08-20T08:03:29;23.80;31.40
2767;DHT22;1391;46.74287300;11.63683300;2023-08-20T08:05:57;24.30;34.80
2767;DHT22;1391;46.74287300;11.63683300;2023-08-20T08:08:26;23.80;34.40
2767;DHT22;1391;46.74287300;11.63683300;2023-08-20T08:10:53;24.20;44.80
2767;DHT22;1391;46.74287300;11.63683300;2023-08-20T08:13:22;23.70;32.60
2767;DHT22;1391;46.74287300;11.63683300;2023-08-20T08:15:50;23.70;31.80
2767;DHT22;1391;46.74287300;11.63683300;2023-08-20T08:18:18;23.70;30.80
2767;DHT22;1391;46.74287300;11.63683300;2023-08-20T08:20:45;23.80;31.30
2767;DHT22;1391;46.74287300;11.63683300;2023-08-20T08:23:13;23.80;29.20
2767;DHT22;1391;46.74287300;11.63683300;2023-08-20T08:25:41;24.50;34.20
2767;DHT22;1391;46.74287300;11.63683300;2023-08-20T08:28:08;23.90;27.60
2767;DHT22;1391;46.74287300;11.63683300;2023-08-20T08:30:36;24.50;34.20
2767;DHT22;1391;46.74287300;11.63683300;2023-08-20T08:33:04;24.00;28.70
2767;DHT22;1391;46.74287300;11.63683300;2023-08-20T08:35:31;24.10;29.60
2767;DHT22;1391;46.74287300;11.63683300;2023-08-20T08:37:58;24.80;28.20
2767;DHT22;1391;46.74287300;11.63683300;2023-08-20T08:40:28;24.70;28.50
2767;DHT22;1391;46.74287300;11.63683300;2023-08-20T08:42:57;24.50;28.70
2767;DHT22;1391;46.74287300;11.63683300;2023-08-20T08:45:26;24.70;37.30
2767;DHT22;1391;46.74287300;11.63683300;2023-08-20T08:47:54;24.80;25.80
2767;DHT22;1391;46.74287300;11.63683300;2023-08-20T08:50:22;25.70;29.10
2767;DHT22;1391;46.74287300;11.63683300;2023-08-20T08:52:51;25.30;23.30
2767;DHT22;1391;46.74287300;11.63683300;2023-08-20T08:55:19;25.10;25.50
2767;DHT22;1391;46.74287300;11.63683300;2023-08-20T08:57:46;24.80;26.30
2767;DHT22;1391;46.74287300;11.63683300;2023-08-20T09:00:15;25.00;26.10
2767;DHT22;1391;46.74287300;11.63683300;2023-08-20T09:02:42;25.20;27.70
2767;DHT22;1391;46.74287300;11.63683300;2023-08-20T09:05:10;25.80;28.50
2767;DHT22;1391;46.74287300;11.63683300;2023-08-20T09:07:42;25.10;27.20
2767;DHT22;1391;46.74287300;11.63683300;2023-08-20T09:10:10;25.70;26.30
2767;DHT22;1391;46.74287300;11.63683300;2023-08-20T09:12:37;25.10;24.00
2767;DHT22;1391;46.74287300;11.63683300;2023-08-20T09:15:10;25.20;25.20
2767;DHT22;1391;46.74287300;11.63683300;2023-08-20T09:17:40;25.80;26.30
2767;DHT22;1391;46.74287300;11.63683300;2023-08-20T09:20:08;26.10;33.70
2767;DHT22;1391;46.74287300;11.63683300;2023-08-20T09:22:36;25.90;23.10
2767;DHT22;1391;46.74287300;11.63683300;2023-08-20T09:25:04;26.50;21.10
2767;DHT22;1391;46.74287300;11.63683300;2023-08-20T09:27:39;26.10;22.50
2767;DHT22;1391;46.74287300;11.63683300;2023-08-20T09:30:08;26.10;24.10
2767;DHT22;1391;46.74287300;11.63683300;2023-08-20T09:32:37;25.90;22.90
2767;DHT22;1391;46.74287300;11.63683300;2023-08-20T09:35:06;26.80;31.50
2767;DHT22;1391;46.74287300;11.63683300;2023-08-20T09:37:33;26.70;22.00
2767;DHT22;1391;46.74287300;11.63683300;2023-08-20T09:40:01;26.10;24.20
2767;DHT22;1391;46.74287300;11.63683300;2023-08-20T09:42:31;26.10;22.10
2767;DHT22;1391;46.74287300;11.63683300;2023-08-20T09:44:59;26.90;22.00
2767;DHT22;1391;46.74287300;11.63683300;2023-08-20T09:47:29;26.90;22.30
2767;DHT22;1391;46.74287300;11.63683300;2023-08-20T09:49:58;27.20;23.90
2767;DHT22;1391;46.74287300;11.63683300;2023-08-20T09:52:39;27.60;20.30
2767;DHT22;1391;46.74287300;11.63683300;2023-08-20T09:55:08;28.40;24.60
2767;DHT22;1391;46.74287300;11.63683300;2023-08-20T09:57:37;28.80;25.90
2767;DHT22;1391;46.74287300;11.63683300;2023-08-20T10:00:06;29.20;24.10
2767;DHT22;1391;46.74287300;11.63683300;2023-08-20T10:02:37;29.00;17.40
2767;DHT22;1391;46.74287300;11.63683300;2023-08-20T10:05:07;28.40;18.60
2767;DHT22;1391;46.74287300;11.63683300;2023-08-20T10:07:35;28.40;21.50
2767;DHT22;1391;46.74287300;11.63683300;2023-08-20T10:10:04;28.50;15.80
2767;DHT22;1391;46.74287300;11.63683300;2023-08-20T10:12:34;28.40;16.50
2767;DHT22;1391;46.74287300;11.63683300;2023-08-20T10:15:06;29.70;26.50
2767;DHT22;1391;46.74287300;11.63683300;2023-08-20T10:17:35;28.60;20.70
2767;DHT22;1391;46.74287300;11.63683300;2023-08-20T10:20:09;28.90;21.60
2767;DHT22;1391;46.74287300;11.63683300;2023-08-20T10:22:38;28.80;14.90
2767;DHT22;1391;46.74287300;11.63683300;2023-08-20T10:25:07;28.60;16.20
2767;DHT22;1391;46.74287300;11.63683300;2023-08-20T10:27:36;29.50;17.90
2767;DHT22;1391;46.74287300;11.63683300;2023-08-20T10:30:08;29.70;19.60
2767;DHT22;1391;46.74287300;11.63683300;2023-08-20T10:32:45;29.90;15.10
2767;DHT22;1391;46.74287300;11.63683300;2023-08-20T10:35:15;29.70;15.70
2767;DHT22;1391;46.74287300;11.63683300;2023-08-20T10:38:07;29.10;17.90
2767;DHT22;1391;46.74287300;11.63683300;2023-08-20T10:40:52;29.20;14.20
2767;DHT22;1391;46.74287300;11.63683300;2023-08-20T10:43:28;30.00;19.20
2767;DHT22;1391;46.74287300;11.63683300;2023-08-20T10:46:06;30.00;15.60
2767;DHT22;1391;46.74287300;11.63683300;2023-08-20T10:48:42;29.90;14.90
2767;DHT22;1391;46.74287300;11.63683300;2023-08-20T10:51:12;30.00;13.90
2767;DHT22;1391;46.74287300;11.63683300;2023-08-20T10:53:42;29.70;15.60
2767;DHT22;1391;46.74287300;11.63683300;2023-08-20T10:56:12;29.50;14.50
2767;DHT22;1391;46.74287300;11.63683300;2023-08-20T10:58:42;29.90;17.80
2767;DHT22;1391;46.74287300;11.63683300;2023-08-20T11:01:19;29.60;24.10
2767;DHT22;1391;46.74287300;11.63683300;2023-08-20T11:03:48;30.70;20.80
2767;DHT22;1391;46.74287300;11.63683300;2023-08-20T11:06:18;29.80;16.20
2767;DHT22;1391;46.74287300;11.63683300;2023-08-20T11:08:45;29.90;13.10
2767;DHT22;1391;46.74287300;11.63683300;2023-08-20T11:11:13;29.80;12.90
2767;DHT22;1391;46.74287300;11.63683300;2023-08-20T11:13:40;29.60;14.40
2767;DHT22;1391;46.74287300;11.63683300;2023-08-20T11:16:10;30.00;16.10
2767;DHT22;1391;46.74287300;11.63683300;2023-08-20T11:18:37;30.60;13.30
2767;DHT22;1391;46.74287300;11.63683300;2023-08-20T11:21:05;30.90;17.00
2767;DHT22;1391;46.74287300;11.63683300;2023-08-20T11:23:34;30.60;12.90
2767;DHT22;1391;46.74287300;11.63683300;2023-08-20T11:26:04;30.60;15.80
2767;DHT22;1391;46.74287300;11.63683300;2023-08-20T11:28:31;30.90;11.10
2767;DHT22;1391;46.74287300;11.63683300;2023-08-20T11:30:58;31.00;16.80
2767;DHT22;1391;46.74287300;11.63683300;2023-08-20T11:33:28;31.00;10.40
2767;DHT22;1391;46.74287300;11.63683300;2023-08-20T11:35:55;30.90;11.70
2767;DHT22;1391;46.74287300;11.63683300;2023-08-20T11:38:23;31.10;22.60
2767;DHT22;1391;46.74287300;11.63683300;2023-08-20T11:40:52;31.80;22.40
2767;DHT22;1391;46.74287300;11.63683300;2023-08-20T11:43:19;31.70;24.30
2767;DHT22;1391;46.74287300;11.63683300;2023-08-20T11:45:49;31.00;16.10
2767;DHT22;1391;46.74287300;11.63683300;2023-08-20T11:48:16;31.10;11.10
2767;DHT22;1391;46.74287300;11.63683300;2023-08-20T11:50:43;31.00;8.70
2767;DHT22;1391;46.74287300;11.63683300;2023-08-20T11:53:11;31.70;14.90
2767;DHT22;1391;46.74287300;11.63683300;2023-08-20T11:55:39;31.70;8.70
2767;DHT22;1391;46.74287300;11.63683300;2023-08-20T11:58:13;31.60;15.20
2767;DHT22;1391;46.74287300;11.63683300;2023-08-20T12:00:40;31.90;15.00
2767;DHT22;1391;46.74287300;11.63683300;2023-08-20T12:03:09;32.00;8.90
2767;DHT22;1391;46.74287300;11.63683300;2023-08-20T12:05:36;31.90;12.90
2767;DHT22;1391;46.74287300;11.63683300;2023-08-20T12:08:04;31.70;13.00
2767;DHT22;1391;46.74287300;11.63683300;2023-08-20T12:10:32;31.70;12.40
2767;DHT22;1391;46.74287300;11.63683300;2023-08-20T12:13:00;31.60;9.20
2767;DHT22;1391;46.74287300;11.63683300;2023-08-20T12:15:30;31.70;9.90
2767;DHT22;1391;46.74287300;11.63683300;2023-08-20T12:18:01;31.70;11.90
2767;DHT22;1391;46.74287300;11.63683300;2023-08-20T12:20:31;31.10;12.30
2767;DHT22;1391;46.74287300;11.63683300;2023-08-20T12:23:00;31.60;13.10
2767;DHT22;1391;46.74287300;11.63683300;2023-08-20T12:25:31;31.70;11.80
2767;DHT22;1391;46.74287300;11.63683300;2023-08-20T12:28:00;31.70;8.80
2767;DHT22;1391;46.74287300;11.63683300;2023-08-20T12:30:27;31.80;9.70
2767;DHT22;1391;46.74287300;11.63683300;2023-08-20T12:32:56;31.80;7.80
2767;DHT22;1391;46.74287300;11.63683300;2023-08-20T12:35:23;31.70;9.20
2767;DHT22;1391;46.74287300;11.63683300;2023-08-20T12:37:50;31.10;7.80
2767;DHT22;1391;46.74287300;11.63683300;2023-08-20T12:40:17;31.80;15.90
2767;DHT22;1391;46.74287300;11.63683300;2023-08-20T12:42:44;31.70;8.00
2767;DHT22;1391;46.74287300;11.63683300;2023-08-20T12:45:11;31.90;10.90
2767;DHT22;1391;46.74287300;11.63683300;2023-08-20T12:47:39;32.00;10.30
2767;DHT22;1391;46.74287300;11.63683300;2023-08-20T12:50:08;31.90;12.20
2767;DHT22;1391;46.74287300;11.63683300;2023-08-20T12:52:36;31.70;12.80
2767;DHT22;1391;46.74287300;11.63683300;2023-08-20T12:55:04;31.80;8.70
2767;DHT22;1391;46.74287300;11.63683300;2023-08-20T12:57:34;31.80;13.20
2767;DHT22;1391;46.74287300;11.63683300;2023-08-20T13:00:02;31.70;12.10
2767;DHT22;1391;46.74287300;11.63683300;2023-08-20T13:02:37;31.70;8.90
2767;DHT22;1391;46.74287300;11.63683300;2023-08-20T13:05:05;31.80;14.10
2767;DHT22;1391;46.74287300;11.63683300;2023-08-20T13:07:36;31.70;16.00
2767;DHT22;1391;46.74287300;11.63683300;2023-08-20T13:10:05;31.80;19.00
2767;DHT22;1391;46.74287300;11.63683300;2023-08-20T13:12:34;31.50;14.60
2767;DHT22;1391;46.74287300;11.63683300;2023-08-20T13:15:02;31.70;18.90
2767;DHT22;1391;46.74287300;11.63683300;2023-08-20T13:17:31;31.70;10.30
2767;DHT22;1391;46.74287300;11.63683300;2023-08-20T13:19:58;32.00;12.00
2767;DHT22;1391;46.74287300;11.63683300;2023-08-20T13:22:26;31.90;8.50
2767;DHT22;1391;46.74287300;11.63683300;2023-08-20T13:24:54;32.10;15.90
2767;DHT22;1391;46.74287300;11.63683300;2023-08-20T13:27:21;31.90;8.20
2767;DHT22;1391;46.74287300;11.63683300;2023-08-20T13:29:50;31.90;8.80
2767;DHT22;1391;46.74287300;11.63683300;2023-08-20T13:32:17;31.90;9.50
2767;DHT22;1391;46.74287300;11.63683300;2023-08-20T13:34:44;32.10;9.60
2767;DHT22;1391;46.74287300;11.63683300;2023-08-20T13:37:11;31.70;10.10
2767;DHT22;1391;46.74287300;11.63683300;2023-08-20T13:39:38;31.70;10.50
2767;DHT22;1391;46.74287300;11.63683300;2023-08-20T13:42:06;31.80;11.80
2767;DHT22;1391;46.74287300;11.63683300;2023-08-20T13:44:34;31.70;14.00